This is the latest recevied weather packets stored in our database for station/object KR4KUV. If no packets are shown the sender has not sent any weather packets the latest 10 day(s).
| Time | Temp. | Humidity | Pressure | Rain* | Wind** | Luminosity | Snow |
|---|---|---|---|---|---|---|---|
| 1787948693 | 32.78° C | 60% | 1017.4 hPa | 0 mm | - | 138 W/m² | - |
| 1787948389 | 31.67° C | 62% | 1017.4 hPa | 0 mm | - | 525 W/m² | - |
| 1787948088 | 31.11° C | 66% | 1017.3 hPa | 0 mm | - | 543 W/m² | - |
| 1787947788 | 30.56° C | 66% | 1017.3 hPa | 0 mm | - | 429 W/m² | - |
| 1787947486 | 31.67° C | 63% | 1017.2 hPa | 0 mm | - | 92 W/m² | - |
| 1787947181 | 32.22° C | 62% | 1017.3 hPa | 0 mm | - | 561 W/m² | - |
| 1787946880 | 32.22° C | 62% | 1017.4 hPa | 0 mm | - | 253 W/m² | - |
| 1787946578 | 32.78° C | 64% | 1017.5 hPa | 0 mm | - | 608 W/m² | - |
| 1787946274 | 32.78° C | 61% | 1017.5 hPa | 0 mm | - | 589 W/m² | - |
| 1787945974 | 31.67° C | 68% | 1017.6 hPa | 0 mm | - | 622 W/m² | - |
| 1787945668 | 31.11° C | 68% | 1017.7 hPa | 0 mm | - | 147 W/m² | - |
| 1787945362 | 31.67° C | 66% | 1017.6 hPa | 0 mm | - | 149 W/m² | - |
| 1787945058 | 31.67° C | 70% | 1017.9 hPa | 0 mm | - | 567 W/m² | - |
| 1787944755 | 31.11° C | 68% | 1017.9 hPa | 0 mm | - | 186 W/m² | - |
| 1787944451 | 31.11° C | 71% | 1017.8 hPa | 0 mm | - | 705 W/m² | - |
| 1787944147 | 31.11° C | 69% | 1017.8 hPa | 0 mm | - | 242 W/m² | - |
| 1787943841 | 30.56° C | 72% | 1018.1 hPa | 0 mm | - | 304 W/m² | - |
| 1787943537 | 30.56° C | 72% | 1018.1 hPa | 0 mm | - | 230 W/m² | - |
| 1787943232 | 30.56° C | 71% | 1018.2 hPa | 0 mm | - | 227 W/m² | - |
| 1787942931 | 31.11° C | 68% | 1018.2 hPa | 0 mm | - | 259 W/m² | - |
| 1787942627 | 31.11° C | 67% | 1018.2 hPa | 0 mm | - | 321 W/m² | - |
| 1787942327 | 31.11° C | 69% | 1018.3 hPa | 0 mm | - | 723 W/m² | - |
| 1787942022 | 30.56° C | 69% | 1018.4 hPa | 0 mm | - | 207 W/m² | - |
| 1787941717 | 31.11° C | 68% | 1018.3 hPa | 0 mm | - | 144 W/m² | - |
| 1787941416 | 30.56° C | 67% | 1018.4 hPa | 0 mm | - | 172 W/m² | - |
* Rain latest hour (hover to see other rain measurements)
** Current wind speed in m/s (hover to see current wind gust speed)